Time;durP1;ratioP1;P1;durP2;ratioP2;P2;SDS_P1;SDS_P2;PMS_P1;PMS_P2;Temp;Humidity;BMP_temperature;BMP_pressure;BME280_temperature;BME280_humidity;BME280_pressure;Samples;Min_cycle;Max_cycle;Signal;HPM_P1;HPM_P2
2023/09/26 00:02:35;;;;;;;38.00;19.60;;;16.30;99.90;;;;;;4380846;28;660844;-69
2023/09/26 00:05:23;;;;;;;38.25;19.65;;;16.30;99.90;;;;;;4387256;28;660808;-69
2023/09/26 00:08:10;;;;;;;30.70;17.80;;;16.30;99.90;;;;;;4400872;28;661094;-69
2023/09/26 00:10:59;;;;;;;33.50;17.77;;;16.30;99.90;;;;;;4381360;28;660591;-69
2023/09/26 00:13:47;;;;;;;31.47;17.20;;;16.30;99.90;;;;;;4402360;28;661351;-69
2023/09/26 00:16:34;;;;;;;40.47;17.80;;;16.30;99.90;;;;;;4383004;28;660641;-69
2023/09/26 00:19:22;;;;;;;31.20;17.03;;;16.30;99.90;;;;;;4397036;28;661153;-69
2023/09/26 00:22:10;;;;;;;31.40;16.50;;;16.30;99.90;;;;;;4382637;28;661049;-69
2023/09/26 00:24:57;;;;;;;28.13;15.90;;;16.30;99.90;;;;;;4405964;28;660159;-69
2023/09/26 00:27:44;;;;;;;32.60;16.40;;;16.20;99.90;;;;;;4384755;28;662019;-69
2023/09/26 00:30:31;;;;;;;28.50;15.07;;;16.20;99.90;;;;;;4407214;28;660539;-69
2023/09/26 00:33:18;;;;;;;25.97;14.67;;;16.20;99.90;;;;;;4386506;28;661049;-69
2023/09/26 00:36:11;;;;;;;23.77;14.03;;;16.20;99.90;;;;;;4399776;28;661204;-69
2023/09/26 00:38:58;;;;;;;26.37;14.50;;;16.10;99.90;;;;;;4387394;28;660619;-69
2023/09/26 00:41:45;;;;;;;28.63;13.40;;;16.10;99.90;;;;;;4405584;28;660891;-69
2023/09/26 00:44:32;;;;;;;27.53;13.77;;;16.00;99.90;;;;;;4388833;28;660451;-69
2023/09/26 00:47:20;;;;;;;31.30;14.70;;;15.90;99.90;;;;;;4404281;28;661858;-70
2023/09/26 00:50:09;;;;;;;23.43;14.03;;;15.90;99.90;;;;;;4334600;28;660979;-70
2023/09/26 00:52:58;;;;;;;22.77;13.10;;;15.90;99.90;;;;;;4270910;28;661361;-70
2023/09/26 00:55:45;;;;;;;21.83;13.73;;;15.90;99.90;;;;;;4383327;28;661549;-69
2023/09/26 00:58:32;;;;;;;27.80;13.70;;;15.80;99.90;;;;;;4393921;28;660829;-69
2023/09/26 01:01:20;;;;;;;23.87;12.00;;;15.80;99.90;;;;;;4403540;28;661658;-69
2023/09/26 01:04:07;;;;;;;26.10;12.90;;;15.80;99.90;;;;;;4397289;28;660760;-69
2023/09/26 01:06:56;;;;;;;21.03;12.37;;;15.70;99.90;;;;;;4406577;28;662320;-69
2023/09/26 01:09:44;;;;;;;24.17;12.27;;;15.60;99.90;;;;;;4389864;28;660682;-69
2023/09/26 01:12:31;;;;;;;21.63;12.63;;;15.60;99.90;;;;;;4407004;28;660684;-69
2023/09/26 01:15:31;;;;;;;23.10;11.53;;;15.50;99.90;;;;;;4376932;28;660769;-69
2023/09/26 01:18:23;;;;;;;25.67;12.17;;;15.50;99.90;;;;;;4386769;28;660501;-69
2023/09/26 01:21:10;;;;;;;23.03;11.50;;;15.40;99.90;;;;;;4381657;28;661842;-69
2023/09/26 01:23:59;;;;;;;24.67;12.77;;;15.40;99.90;;;;;;4400986;28;661481;-69
2023/09/26 01:26:46;;;;;;;27.30;12.00;;;15.40;99.90;;;;;;4399390;28;661360;-69
2023/09/26 01:29:33;;;;;;;24.70;11.43;;;15.30;99.90;;;;;;4386114;28;660777;-69
2023/09/26 01:32:21;;;;;;;25.07;11.50;;;15.30;99.90;;;;;;4403514;28;661467;-70
2023/09/26 01:35:08;;;;;;;19.77;10.83;;;15.30;99.90;;;;;;4383076;28;661101;-70
2023/09/26 01:37:56;;;;;;;22.93;11.80;;;15.30;99.90;;;;;;4415127;28;661260;-69
2023/09/26 01:40:44;;;;;;;20.23;10.47;;;15.30;99.90;;;;;;4388743;28;660791;-69
2023/09/26 01:43:32;;;;;;;27.70;12.50;;;15.20;99.90;;;;;;4400863;28;661597;-69
2023/09/26 01:46:20;;;;;;;21.60;11.37;;;15.20;99.90;;;;;;4382001;28;661609;-69
2023/09/26 01:49:07;;;;;;;26.30;12.00;;;15.20;99.90;;;;;;4412542;28;661007;-69
2023/09/26 01:51:54;;;;;;;21.10;11.80;;;15.20;99.90;;;;;;4382432;28;662343;-69
2023/09/26 01:54:41;;;;;;;20.83;11.67;;;15.20;99.90;;;;;;4403410;28;661334;-69
2023/09/26 01:57:30;;;;;;;21.90;11.83;;;15.20;99.90;;;;;;4387757;28;661095;-69
2023/09/26 02:00:19;;;;;;;22.40;12.37;;;15.20;99.90;;;;;;4396687;28;660994;-69
2023/09/26 02:03:06;;;;;;;21.97;11.77;;;15.20;99.90;;;;;;4400205;28;660751;-70
2023/09/26 02:05:58;;;;;;;21.53;11.40;;;15.10;99.90;;;;;;4382184;28;661458;-70
2023/09/26 02:08:45;;;;;;;23.93;11.77;;;15.10;99.90;;;;;;4381518;28;662046;-69
2023/09/26 02:11:32;;;;;;;27.03;12.13;;;15.20;99.90;;;;;;4391563;28;660887;-70
2023/09/26 02:14:21;;;;;;;21.67;12.00;;;15.10;99.90;;;;;;4399634;28;661936;-70
2023/09/26 02:17:10;;;;;;;27.67;12.10;;;15.10;99.90;;;;;;4380128;28;661188;-69
2023/09/26 02:19:57;;;;;;;25.93;12.00;;;15.20;99.90;;;;;;4394828;28;661061;-69
2023/09/26 02:22:46;;;;;;;21.37;11.33;;;15.10;99.90;;;;;;4403089;28;661416;-69
2023/09/26 02:25:33;;;;;;;21.50;11.13;;;15.10;99.90;;;;;;4388980;28;661210;-70
2023/09/26 02:28:20;;;;;;;22.27;12.13;;;15.10;99.90;;;;;;4402825;28;661194;-70
2023/09/26 02:31:15;;;;;;;29.00;12.87;;;15.10;99.90;;;;;;4387058;28;661284;-70
2023/09/26 02:34:03;;;;;;;22.67;12.03;;;15.10;99.90;;;;;;4368559;28;660952;-70
2023/09/26 02:36:50;;;;;;;20.73;11.30;;;15.00;99.90;;;;;;4403765;28;661858;-70
2023/09/26 02:39:38;;;;;;;25.97;11.37;;;15.00;99.90;;;;;;4383946;28;661015;-70
2023/09/26 02:42:25;;;;;;;25.93;12.07;;;15.00;99.90;;;;;;4402188;28;662157;-70
2023/09/26 02:45:13;;;;;;;23.37;11.80;;;15.00;99.90;;;;;;4398455;28;660687;-70
2023/09/26 02:48:02;;;;;;;21.60;11.43;;;15.00;99.90;;;;;;4400736;28;662690;-70
2023/09/26 02:50:49;;;;;;;21.60;11.10;;;14.90;99.90;;;;;;4352810;28;661743;-70
2023/09/26 02:53:37;;;;;;;23.80;11.33;;;14.90;99.90;;;;;;4275029;28;660348;-70
2023/09/26 02:56:24;;;;;;;34.23;10.37;;;14.80;99.90;;;;;;4249917;28;661086;-71
2023/09/26 02:59:11;;;;;;;25.97;10.27;;;14.70;99.90;;;;;;4275998;28;660509;-70
2023/09/26 03:01:58;;;;;;;32.47;10.40;;;14.70;99.90;;;;;;4385069;28;660826;-70
2023/09/26 03:04:49;;;;;;;21.77;11.43;;;14.60;99.90;;;;;;4402162;28;661908;-70
2023/09/26 03:07:36;;;;;;;23.47;11.20;;;14.60;99.90;;;;;;4379867;28;660813;-70
2023/09/26 03:10:23;;;;;;;25.77;10.20;;;14.50;99.90;;;;;;4384015;28;660863;-70
2023/09/26 03:13:11;;;;;;;25.17;11.03;;;14.50;99.90;;;;;;4407657;28;661624;-70
2023/09/26 03:15:58;;;;;;;115.03;10.80;;;14.40;99.90;;;;;;4382730;28;661996;-70
2023/09/26 03:18:46;;;;;;;31.93;10.27;;;14.40;99.90;;;;;;4405218;28;663299;-70
2023/09/26 03:21:34;;;;;;;19.40;9.73;;;14.30;99.90;;;;;;4384022;28;660784;-70
2023/09/26 03:24:22;;;;;;;23.03;9.67;;;14.20;99.90;;;;;;4403496;28;660540;-70
2023/09/26 03:27:09;;;;;;;18.47;9.23;;;14.20;99.90;;;;;;4378851;28;660085;-70
2023/09/26 03:29:56;;;;;;;17.40;8.83;;;14.10;99.90;;;;;;4403450;28;660125;-70
2023/09/26 03:32:43;;;;;;;17.80;8.93;;;14.10;99.90;;;;;;4390236;28;659694;-70
2023/09/26 03:35:31;;;;;;;15.83;8.43;;;14.00;99.90;;;;;;4405061;28;660680;-70
2023/09/26 03:38:21;;;;;;;20.50;9.60;;;14.00;99.90;;;;;;4381307;28;660155;-70
2023/09/26 03:41:08;;;;;;;484.43;18.07;;;13.90;99.90;;;;;;4381983;28;659759;-70
2023/09/26 03:43:55;;;;;;;204.90;10.30;;;13.80;99.90;;;;;;4407836;28;662294;-70
2023/09/26 03:46:42;;;;;;;25.13;9.48;;;13.60;99.90;;;;;;4384074;28;662985;-70
2023/09/26 03:49:30;;;;;;;23.47;8.20;;;13.60;99.90;;;;;;4403929;28;660434;-70
2023/09/26 03:52:17;;;;;;;175.50;10.93;;;13.60;99.90;;;;;;4407714;28;659437;-70
2023/09/26 03:55:07;;;;;;;53.20;9.13;;;13.50;99.90;;;;;;4412373;28;661733;-70
2023/09/26 03:57:54;;;;;;;14.57;8.37;;;13.40;99.90;;;;;;4374895;28;661192;-70
2023/09/26 04:00:41;;;;;;;60.77;9.40;;;13.40;99.90;;;;;;4403005;28;659670;-70
2023/09/26 04:03:29;;;;;;;17.83;7.93;;;13.40;99.90;;;;;;4388349;28;660211;-70
2023/09/26 04:06:16;;;;;;;15.80;6.93;;;13.40;99.90;;;;;;4410883;28;659899;-70
2023/09/26 04:09:03;;;;;;;16.47;8.00;;;13.30;99.90;;;;;;4379688;28;659407;-70
2023/09/26 04:11:52;;;;;;;17.00;8.30;;;13.30;99.90;;;;;;4404201;28;660137;-70
2023/09/26 04:14:39;;;;;;;17.93;8.23;;;13.30;99.90;;;;;;4384319;28;661036;-70
2023/09/26 04:17:28;;;;;;;14.57;7.97;;;13.30;99.90;;;;;;4407785;28;660310;-70
2023/09/26 04:20:19;;;;;;;59.60;7.60;;;13.30;99.90;;;;;;4375267;28;661094;-70
2023/09/26 04:23:07;;;;;;;11.67;6.73;;;13.20;99.90;;;;;;4385955;28;659359;-70
2023/09/26 04:25:55;;;;;;;11.23;6.83;;;13.20;99.90;;;;;;4382418;28;660507;-70
2023/09/26 04:28:44;;;;;;;9.87;6.10;;;13.10;99.90;;;;;;4409358;28;660349;-70
2023/09/26 04:31:31;;;;;;;15.33;7.20;;;13.10;99.90;;;;;;4402885;28;659421;-70
2023/09/26 04:34:18;;;;;;;11.43;7.13;;;13.00;99.90;;;;;;4385736;28;660147;-70
2023/09/26 04:37:07;;;;;;;13.00;6.87;;;13.00;99.90;;;;;;4404635;28;660211;-70
2023/09/26 04:39:54;;;;;;;12.37;6.97;;;12.90;99.90;;;;;;4388541;28;661027;-70
2023/09/26 04:42:45;;;;;;;10.50;7.10;;;12.90;99.90;;;;;;4413223;28;660048;-70
2023/09/26 04:45:34;;;;;;;25.90;7.00;;;12.90;99.90;;;;;;4362210;28;660762;-70
2023/09/26 04:48:21;;;;;;;68.10;8.37;;;12.90;99.90;;;;;;4398991;28;660262;-70
2023/09/26 04:51:09;;;;;;;11.87;7.33;;;12.90;99.90;;;;;;4388194;28;659516;-70
2023/09/26 04:53:58;;;;;;;14.37;7.27;;;12.90;99.90;;;;;;4403168;28;660076;-70
2023/09/26 04:56:45;;;;;;;12.37;6.90;;;12.90;99.90;;;;;;4390239;28;660220;-70
2023/09/26 04:59:32;;;;;;;9.80;6.20;;;13.10;99.90;;;;;;4399759;28;659485;-70
2023/09/26 05:02:21;;;;;;;14.83;7.40;;;13.10;99.90;;;;;;4402858;28;659702;-70
2023/09/26 05:05:10;;;;;;;25.93;8.00;;;13.10;99.90;;;;;;4388055;28;659987;-70
2023/09/26 05:07:58;;;;;;;14.30;6.67;;;13.20;99.90;;;;;;4393016;28;660028;-70
2023/09/26 05:10:48;;;;;;;13.67;7.13;;;13.10;99.90;;;;;;4401612;28;661208;-71
2023/09/26 05:13:35;;;;;;;11.00;7.60;;;13.20;99.90;;;;;;4379397;28;661329;-70
2023/09/26 05:16:22;;;;;;;14.47;8.03;;;13.30;99.90;;;;;;4401460;28;660519;-70
2023/09/26 05:19:11;;;;;;;15.03;8.07;;;13.30;99.90;;;;;;4409142;28;663423;-70
2023/09/26 05:21:58;;;;;;;15.00;7.90;;;13.40;99.90;;;;;;4383734;28;659751;-69
2023/09/26 05:24:45;;;;;;;16.90;8.80;;;13.40;99.90;;;;;;4406083;28;660595;-69
2023/09/26 05:27:33;;;;;;;27.27;13.27;;;13.60;99.90;;;;;;4381528;28;659722;-69
2023/09/26 05:30:20;;;;;;;37.43;12.70;;;13.70;99.90;;;;;;4401609;28;661660;-70
2023/09/26 05:33:08;;;;;;;20.10;9.30;;;13.80;99.90;;;;;;4389751;28;660813;-70
2023/09/26 05:35:56;;;;;;;23.60;9.83;;;14.00;99.90;;;;;;4399451;28;660525;-70
2023/09/26 05:38:44;;;;;;;30.80;13.50;;;14.10;99.90;;;;;;4380036;28;659934;-70
2023/09/26 05:41:31;;;;;;;26.80;12.63;;;14.20;99.90;;;;;;4402097;28;661827;-70
2023/09/26 05:44:18;;;;;;;25.77;12.73;;;14.40;99.90;;;;;;4382377;28;660463;-69
2023/09/26 05:47:06;;;;;;;29.30;14.13;;;14.50;99.90;;;;;;4407893;28;661132;-69
2023/09/26 05:49:53;;;;;;;26.57;13.60;;;14.60;99.90;;;;;;4385521;28;660412;-70
2023/09/26 05:52:42;;;;;;;26.30;13.70;;;14.70;99.90;;;;;;4402624;28;662542;-70
2023/09/26 05:55:29;;;;;;;25.47;14.13;;;14.90;99.90;;;;;;4383968;28;660596;-70
2023/09/26 05:58:17;;;;;;;27.23;12.77;;;15.00;99.90;;;;;;4394560;28;661003;-70
2023/09/26 06:01:08;;;;;;;26.67;13.17;;;15.20;99.90;;;;;;4383286;28;660955;-70
2023/09/26 06:03:55;;;;;;;27.43;12.87;;;15.30;99.90;;;;;;4380798;28;661521;-70
2023/09/26 06:06:43;;;;;;;21.87;12.63;;;15.40;99.90;;;;;;4383592;28;661003;-70
2023/09/26 06:09:31;;;;;;;23.27;13.03;;;15.60;99.90;;;;;;4398965;28;661341;-70
2023/09/26 06:12:19;;;;;;;27.60;13.20;;;15.70;99.90;;;;;;4382843;28;661402;-69
2023/09/26 06:15:07;;;;;;;23.60;12.97;;;15.90;99.90;;;;;;4401070;28;661032;-69
2023/09/26 06:17:57;;;;;;;24.43;12.90;;;16.10;99.90;;;;;;4376284;28;662017;-70
2023/09/26 06:20:45;;;;;;;22.07;12.37;;;16.20;99.90;;;;;;4385019;28;664718;-70
2023/09/26 06:23:33;;;;;;;22.87;12.40;;;16.30;99.90;;;;;;4389201;28;660532;-70
2023/09/26 06:26:22;;;;;;;25.43;12.10;;;16.50;99.90;;;;;;4403509;28;661539;-70
2023/09/26 06:29:10;;;;;;;19.37;11.27;;;16.60;99.90;;;;;;4382240;28;661534;-70
2023/09/26 06:31:57;;;;;;;22.97;12.03;;;16.70;99.90;;;;;;4400012;28;661065;-70
2023/09/26 06:34:45;;;;;;;22.73;11.67;;;16.70;99.90;;;;;;4405836;28;660510;-69
2023/09/26 06:37:33;;;;;;;22.80;12.17;;;16.80;99.90;;;;;;4401866;28;660892;-70
2023/09/26 06:40:20;;;;;;;20.50;12.30;;;16.90;99.90;;;;;;4405725;28;661088;-69
2023/09/26 06:43:09;;;;;;;20.20;12.57;;;16.90;99.90;;;;;;4397844;28;661348;-69
2023/09/26 06:45:56;;;;;;;27.10;13.33;;;17.10;99.90;;;;;;4405510;28;660509;-69
2023/09/26 06:48:44;;;;;;;22.10;13.03;;;17.10;99.90;;;;;;4383668;28;660831;-69
2023/09/26 06:51:33;;;;;;;22.83;13.27;;;17.20;99.90;;;;;;4410417;28;661234;-69
2023/09/26 06:54:20;;;;;;;23.73;12.87;;;17.30;99.90;;;;;;4377202;28;661944;-69
2023/09/26 06:57:09;;;;;;;23.50;12.73;;;17.30;99.90;;;;;;4385609;28;660581;-69
2023/09/26 06:59:59;;;;;;;23.40;12.80;;;17.40;99.90;;;;;;4294972;28;661311;-70
2023/09/26 07:02:47;;;;;;;22.97;12.33;;;17.50;99.90;;;;;;4267432;28;661419;-70
2023/09/26 07:05:34;;;;;;;20.60;12.23;;;17.40;99.90;;;;;;4273953;28;661095;-70
2023/09/26 07:08:21;;;;;;;19.83;11.83;;;17.40;99.90;;;;;;4344826;28;661889;-69
2023/09/26 07:11:09;;;;;;;26.17;13.00;;;17.40;99.90;;;;;;4386506;28;660747;-69
2023/09/26 07:13:56;;;;;;;25.43;12.37;;;17.50;99.90;;;;;;4406000;28;661048;-69
2023/09/26 07:16:46;;;;;;;23.73;12.67;;;17.50;99.90;;;;;;4378319;28;660947;-69
2023/09/26 07:19:34;;;;;;;22.43;12.97;;;17.50;99.90;;;;;;4383899;28;660852;-69
2023/09/26 07:22:21;;;;;;;23.03;12.73;;;17.60;99.90;;;;;;4404620;28;661977;-69
2023/09/26 07:25:09;;;;;;;20.83;13.00;;;17.80;99.90;;;;;;4379625;28;660938;-69
2023/09/26 07:27:56;;;;;;;23.50;13.30;;;17.80;99.90;;;;;;4399710;28;660682;-69
2023/09/26 07:30:45;;;;;;;26.97;14.10;;;17.90;99.90;;;;;;4381988;28;662233;-69
2023/09/26 07:33:34;;;;;;;22.27;13.97;;;17.90;99.90;;;;;;4381296;28;660698;-69
2023/09/26 07:36:22;;;;;;;24.70;14.30;;;18.00;99.90;;;;;;4402114;28;661249;-69
2023/09/26 07:39:09;;;;;;;23.83;14.63;;;17.90;99.90;;;;;;4381962;28;660463;-69
2023/09/26 07:41:56;;;;;;;22.20;14.47;;;18.00;99.90;;;;;;4400855;28;661015;-68
2023/09/26 07:44:43;;;;;;;34.53;15.13;;;18.10;99.90;;;;;;4381371;28;661520;-69
2023/09/26 07:47:30;;;;;;;23.90;14.57;;;18.10;99.90;;;;;;4403621;28;660671;-69
2023/09/26 07:50:19;;;;;;;25.50;14.87;;;18.10;99.90;;;;;;4380663;28;661270;-69
2023/09/26 07:53:09;;;;;;;24.03;13.73;;;18.10;99.90;;;;;;4398937;28;661449;-69
2023/09/26 07:55:56;;;;;;;26.20;16.07;;;18.10;99.90;;;;;;4375514;28;660666;-69
2023/09/26 07:58:43;;;;;;;25.90;15.23;;;18.20;99.90;;;;;;4384137;28;660912;-69
2023/09/26 08:01:31;;;;;;;25.57;15.20;;;18.30;99.90;;;;;;4406221;28;661094;-69
2023/09/26 08:04:18;;;;;;;25.37;15.80;;;18.50;99.90;;;;;;4381975;28;660820;-69
2023/09/26 08:07:06;;;;;;;25.23;15.67;;;18.60;99.90;;;;;;4404338;28;661111;-68
2023/09/26 08:09:55;;;;;;;24.53;15.63;;;18.50;99.90;;;;;;4378934;28;661347;-69
2023/09/26 08:12:42;;;;;;;28.37;15.90;;;18.60;99.90;;;;;;4388946;28;660850;-69
2023/09/26 08:15:31;;;;;;;26.73;15.23;;;18.70;99.90;;;;;;4404905;28;661508;-68
2023/09/26 08:18:18;;;;;;;28.43;16.20;;;18.70;99.90;;;;;;4380186;28;660730;-68
2023/09/26 08:21:05;;;;;;;30.60;16.77;;;18.60;99.90;;;;;;4404278;28;661493;-68
2023/09/26 08:23:56;;;;;;;33.10;17.70;;;18.70;99.90;;;;;;4375393;28;661281;-69
2023/09/26 08:26:43;;;;;;;28.77;16.57;;;18.80;99.90;;;;;;4384159;28;661028;-69
2023/09/26 08:29:31;;;;;;;33.40;17.97;;;19.10;99.90;;;;;;4404465;28;662171;-69
2023/09/26 08:32:18;;;;;;;33.03;17.17;;;19.40;99.90;;;;;;4374577;28;660859;-69
2023/09/26 08:35:07;;;;;;;27.63;16.57;;;20.00;99.90;;;;;;4399451;28;662428;-69
2023/09/26 08:37:55;;;;;;;25.27;15.20;;;20.30;99.90;;;;;;4385050;28;662610;-69
2023/09/26 08:40:44;;;;;;;29.10;15.23;;;20.60;99.90;;;;;;4398172;28;660853;-69
2023/09/26 08:43:31;;;;;;;27.93;15.60;;;20.80;99.90;;;;;;4407300;28;660813;-69
2023/09/26 08:46:18;;;;;;;25.27;15.73;;;21.20;99.90;;;;;;4379927;28;660729;-69
2023/09/26 08:49:06;;;;;;;26.40;13.80;;;21.40;99.90;;;;;;4402621;28;661433;-68
2023/09/26 08:51:53;;;;;;;21.13;13.33;;;21.70;99.90;;;;;;4385431;28;660537;-69
2023/09/26 08:54:40;;;;;;;27.70;13.57;;;22.00;99.90;;;;;;4407757;28;662047;-69
2023/09/26 08:57:29;;;;;;;25.43;13.13;;;22.00;99.90;;;;;;4386711;28;660838;-69
2023/09/26 09:00:17;;;;;;;21.03;11.77;;;22.20;99.90;;;;;;4403765;28;661214;-68
2023/09/26 09:03:04;;;;;;;18.50;10.37;;;22.40;99.90;;;;;;4382036;28;661773;-68
2023/09/26 09:05:52;;;;;;;23.98;10.85;;;22.60;99.90;;;;;;4403941;28;662021;-68
2023/09/26 09:08:39;;;;;;;21.50;11.43;;;22.80;99.90;;;;;;4386070;28;660753;-69
2023/09/26 09:11:32;;;;;;;21.83;11.32;;;23.00;99.90;;;;;;4400081;28;662184;-69
2023/09/26 09:14:33;;;;;;;18.50;10.80;;;23.20;99.90;;;;;;4385437;28;660655;-69
2023/09/26 09:17:20;;;;;;;17.33;10.07;;;23.40;99.90;;;;;;4379722;28;661117;-68
2023/09/26 09:20:08;;;;;;;17.48;8.98;;;23.60;99.90;;;;;;4390788;28;660791;-69
2023/09/26 09:23:00;;;;;;;14.70;8.13;;;23.90;99.90;;;;;;4406909;28;661054;-69
2023/09/26 09:25:50;;;;;;;17.38;8.13;;;23.80;99.90;;;;;;4375272;28;660162;-69
2023/09/26 09:28:38;;;;;;;13.98;8.63;;;24.00;99.90;;;;;;4401624;28;659689;-69
2023/09/26 09:31:27;;;;;;;15.50;8.40;;;24.10;99.90;;;;;;4404824;28;660799;-69
2023/09/26 09:34:16;;;;;;;12.57;7.65;;;24.30;99.90;;;;;;4384815;28;660206;-69
2023/09/26 09:37:03;;;;;;;12.70;7.45;;;24.50;99.90;;;;;;4387932;28;659510;-69
2023/09/26 09:39:51;;;;;;;17.05;7.82;;;24.90;99.90;;;;;;4410354;28;661176;-69
2023/09/26 09:42:38;;;;;;;18.85;8.18;;;24.80;99.90;;;;;;4386047;28;659607;-69
2023/09/26 09:45:25;;;;;;;18.52;7.32;;;25.20;99.90;;;;;;4409864;28;660270;-69
2023/09/26 09:48:14;;;;;;;16.92;7.10;;;25.10;99.90;;;;;;4386239;28;660234;-69
2023/09/26 09:51:03;;;;;;;16.67;7.30;;;25.20;99.90;;;;;;4410902;28;659307;-69
2023/09/26 09:53:55;;;;;;;14.65;7.78;;;25.40;99.90;;;;;;4380395;28;659678;-69
2023/09/26 09:56:44;;;;;;;20.92;8.02;;;25.70;99.90;;;;;;4378739;28;659459;-69
2023/09/26 09:59:31;;;;;;;15.98;7.18;;;25.80;99.90;;;;;;4405924;28;659312;-69
2023/09/26 10:02:18;;;;;;;12.98;7.30;;;25.60;99.90;;;;;;4390124;28;659959;-69
2023/09/26 10:05:12;;;;;;;14.63;7.15;;;25.90;99.90;;;;;;4401912;28;660325;-69
2023/09/26 10:08:00;;;;;;;12.02;7.07;;;26.30;99.90;;;;;;4364161;28;660163;-69
2023/09/26 10:10:47;;;;;;;14.82;7.32;;;26.70;99.90;;;;;;4391772;28;659658;-68
2023/09/26 10:13:35;;;;;;;10.27;6.72;;;26.60;99.90;;;;;;4410705;28;660231;-69
2023/09/26 10:16:25;;;;;;;12.02;6.90;;;26.50;99.90;;;;;;4402346;28;659738;-68
2023/09/26 10:19:12;;;;;;;17.98;6.25;;;26.80;99.90;;;;;;4398339;28;659753;-69
2023/09/26 10:22:17;;;;;;;12.13;7.25;;;26.90;99.90;;;;;;4407055;28;660696;-69
2023/09/26 10:25:05;;;;;;;11.80;6.40;;;26.90;99.90;;;;;;4382200;28;659065;-69
2023/09/26 10:27:52;;;;;;;15.95;6.38;;;27.30;99.90;;;;;;4407636;28;659601;-69
2023/09/26 10:30:45;;;;;;;12.43;6.57;;;27.70;99.90;;;;;;4390855;28;660203;-68
2023/09/26 10:33:36;;;;;;;14.27;6.38;;;28.00;99.90;;;;;;4381771;28;659759;-69
2023/09/26 10:36:23;;;;;;;12.98;6.40;;;28.10;99.90;;;;;;4378868;28;659875;-69
2023/09/26 10:39:12;;;;;;;16.45;6.40;;;28.10;99.90;;;;;;4408990;28;660948;-69
2023/09/26 10:42:01;;;;;;;16.17;6.07;;;28.00;99.90;;;;;;4384049;28;660437;-70
2023/09/26 10:44:50;;;;;;;10.90;5.72;;;28.00;99.90;;;;;;4386419;28;660540;-69
2023/09/26 10:47:39;;;;;;;10.50;5.20;;;28.00;99.90;;;;;;4390609;28;659359;-69
2023/09/26 10:50:27;;;;;;;13.85;5.13;;;28.30;99.90;;;;;;4403845;28;659709;-70
2023/09/26 10:53:14;;;;;;;12.48;5.15;;;28.30;99.90;;;;;;4382704;28;659996;-69
2023/09/26 10:56:03;;;;;;;9.75;4.72;;;28.20;99.90;;;;;;4402100;28;659831;-69
2023/09/26 10:58:54;;;;;;;16.60;5.55;;;28.20;99.90;;;;;;4377684;28;661626;-69
2023/09/26 11:01:41;;;;;;;8.23;4.75;;;28.00;99.90;;;;;;4380253;28;659761;-69
2023/09/26 11:04:29;;;;;;;12.13;5.78;;;28.20;99.90;;;;;;4388990;28;658973;-68
2023/09/26 11:07:16;;;;;;;8.98;5.05;;;28.40;99.90;;;;;;4398594;28;660107;-69
2023/09/26 11:10:04;;;;;;;8.30;5.40;;;28.60;99.90;;;;;;4381444;28;658385;-68
2023/09/26 11:12:53;;;;;;;12.60;5.72;;;28.70;99.90;;;;;;4405205;28;659234;-69
2023/09/26 11:15:40;;;;;;;8.35;5.10;;;28.70;99.90;;;;;;4383908;28;660101;-69
2023/09/26 11:18:28;;;;;;;10.80;5.68;;;28.90;99.90;;;;;;4391545;28;658953;-68
2023/09/26 11:21:15;;;;;;;9.90;5.55;;;29.40;88.20;;;;;;4405548;28;660705;-68
2023/09/26 11:24:19;;;;;;;13.18;5.32;;;29.60;91.10;;;;;;4400299;28;659169;-68
2023/09/26 11:27:08;;;;;;;12.10;5.40;;;29.60;90.40;;;;;;4382783;28;660651;-68
2023/09/26 11:29:57;;;;;;;13.32;5.40;;;29.60;82.00;;;;;;4387017;28;660242;-68
2023/09/26 11:32:46;;;;;;;11.00;5.60;;;29.80;80.60;;;;;;4387610;28;660185;-68
2023/09/26 11:35:33;;;;;;;16.33;4.90;;;29.90;76.90;;;;;;4388079;28;659464;-68
2023/09/26 11:38:20;;;;;;;15.13;5.97;;;30.30;73.60;;;;;;4408005;28;661476;-68
2023/09/26 11:41:07;;;;;;;17.98;5.70;;;30.70;75.00;;;;;;4376245;28;660076;-68
2023/09/26 11:43:55;;;;;;;15.75;5.97;;;30.60;83.20;;;;;;4416940;28;661151;-68
2023/09/26 11:46:46;;;;;;;14.73;5.85;;;30.60;73.60;;;;;;4392110;28;659526;-68
2023/09/26 11:49:33;;;;;;;13.55;6.05;;;30.40;71.20;;;;;;4390485;28;660176;-68
2023/09/26 11:52:20;;;;;;;14.88;5.95;;;30.40;81.00;;;;;;4412879;28;659988;-68
2023/09/26 11:55:08;;;;;;;15.70;5.63;;;30.60;69.50;;;;;;4388278;28;659834;-68
2023/09/26 11:57:55;;;;;;;9.70;5.43;;;30.60;70.60;;;;;;4416832;28;661329;-68
2023/09/26 12:00:42;;;;;;;12.75;5.47;;;29.80;68.70;;;;;;4381804;28;658753;-67
2023/09/26 12:03:31;;;;;;;18.27;6.07;;;30.10;80.00;;;;;;4400238;28;660371;-68
2023/09/26 12:06:19;;;;;;;9.73;5.93;;;30.10;80.00;;;;;;4381799;28;659808;-68
2023/09/26 12:09:09;;;;;;;14.63;6.15;;;30.40;78.20;;;;;;4405545;28;659513;-67
2023/09/26 12:11:56;;;;;;;17.17;5.95;;;30.40;73.70;;;;;;4367876;28;660843;-68
2023/09/26 12:14:46;;;;;;;14.60;5.80;;;30.60;71.60;;;;;;4379968;28;659595;-68
2023/09/26 12:17:33;;;;;;;11.38;5.88;;;30.60;72.70;;;;;;4378420;28;660096;-67
2023/09/26 12:20:24;;;;;;;17.42;6.25;;;30.70;73.20;;;;;;4404092;28;660959;-68
2023/09/26 12:23:13;;;;;;;11.52;6.20;;;30.50;73.90;;;;;;4376854;28;659873;-68
2023/09/26 12:26:00;;;;;;;14.43;5.70;;;30.50;73.60;;;;;;4383762;28;660672;-67
2023/09/26 12:28:48;;;;;;;12.80;5.90;;;30.20;74.20;;;;;;4387910;28;660028;-68
2023/09/26 12:31:35;;;;;;;9.85;6.05;;;30.10;77.30;;;;;;4404079;28;661043;-67
2023/09/26 12:34:23;;;;;;;15.85;6.30;;;29.90;85.20;;;;;;4401911;28;658884;-67
2023/09/26 12:37:11;;;;;;;15.80;6.40;;;29.90;81.10;;;;;;4409188;28;661098;-67
2023/09/26 12:39:58;;;;;;;24.38;7.05;;;30.10;86.30;;;;;;4388489;28;661031;-67
2023/09/26 12:42:46;;;;;;;16.37;6.93;;;30.10;86.60;;;;;;4411614;28;659878;-67
2023/09/26 12:45:33;;;;;;;16.60;6.70;;;30.20;87.80;;;;;;4394644;28;659683;-68
2023/09/26 12:48:20;;;;;;;14.15;6.47;;;30.20;90.00;;;;;;4410269;28;660903;-69
2023/09/26 12:51:08;;;;;;;17.70;6.47;;;30.00;91.60;;;;;;4396079;28;660081;-67
2023/09/26 12:53:57;;;;;;;14.63;6.43;;;30.10;89.90;;;;;;4409713;28;659894;-67
2023/09/26 12:56:44;;;;;;;14.70;6.45;;;30.20;89.80;;;;;;4382575;28;661581;-67
2023/09/26 12:59:31;;;;;;;12.18;6.32;;;30.00;90.40;;;;;;4415395;28;659075;-68
2023/09/26 13:02:18;;;;;;;14.13;6.90;;;30.20;91.80;;;;;;4390546;28;659834;-68
2023/09/26 13:05:06;;;;;;;12.23;6.55;;;30.40;94.10;;;;;;4379118;28;660488;-67
2023/09/26 13:07:53;;;;;;;16.02;6.53;;;30.10;91.90;;;;;;4254688;28;659660;-68
2023/09/26 13:10:42;;;;;;;18.75;6.93;;;30.10;93.30;;;;;;4272707;28;659592;-68
2023/09/26 13:13:31;;;;;;;11.50;6.80;;;29.90;99.40;;;;;;4252378;28;660504;-69
2023/09/26 13:16:18;;;;;;;10.23;6.38;;;29.90;99.90;;;;;;4389689;28;659735;-68
2023/09/26 13:19:05;;;;;;;13.20;5.90;;;30.10;99.90;;;;;;4408015;28;660350;-68
2023/09/26 13:21:53;;;;;;;11.07;5.82;;;30.10;97.70;;;;;;4390057;28;659964;-68
2023/09/26 13:24:41;;;;;;;12.85;6.88;;;29.90;97.90;;;;;;4407156;28;659384;-69
2023/09/26 13:27:30;;;;;;;11.80;6.53;;;29.50;99.90;;;;;;4387434;28;659921;-68
2023/09/26 13:30:17;;;;;;;14.35;6.80;;;29.90;99.90;;;;;;4406525;28;659189;-68
2023/09/26 13:33:04;;;;;;;11.98;6.65;;;29.90;99.90;;;;;;4383855;28;660128;-68
2023/09/26 13:35:51;;;;;;;14.85;6.35;;;30.10;94.60;;;;;;4408572;28;660189;-68
2023/09/26 13:38:39;;;;;;;14.35;7.00;;;30.20;91.60;;;;;;4388922;28;660226;-68
2023/09/26 13:41:26;;;;;;;17.65;6.70;;;30.20;93.10;;;;;;4410072;28;661142;-68
2023/09/26 13:44:15;;;;;;;10.23;6.77;;;30.40;92.10;;;;;;4386346;28;660102;-67
2023/09/26 13:47:02;;;;;;;13.52;6.85;;;30.20;94.70;;;;;;4388112;28;660960;-67
2023/09/26 13:49:50;;;;;;;11.63;6.43;;;29.90;96.30;;;;;;4411996;28;660706;-68
2023/09/26 13:52:37;;;;;;;12.63;7.22;;;29.80;99.90;;;;;;4400429;28;659500;-68
2023/09/26 13:55:25;;;;;;;13.68;6.95;;;29.60;99.90;;;;;;4409528;28;660566;-68
2023/09/26 13:58:12;;;;;;;12.18;7.03;;;29.70;98.90;;;;;;4402827;28;661120;-68
2023/09/26 14:01:03;;;;;;;12.00;7.43;;;29.80;99.90;;;;;;4414448;28;659987;-68
2023/09/26 14:03:50;;;;;;;10.60;7.43;;;29.90;99.90;;;;;;4380824;28;660339;-68
2023/09/26 14:06:37;;;;;;;11.10;7.00;;;30.10;98.00;;;;;;4401472;28;660093;-68
2023/09/26 14:09:25;;;;;;;23.17;8.00;;;30.80;92.80;;;;;;4403446;28;659819;-68